sensor_id;sensor_type;location;lat;lon;timestamp;P1;durP1;ratioP1;P2;durP2;ratioP2
60088;SDS011;45961;53.574;55.878;2022-08-25T03:16:30;16.80;;;9.60;;
60088;SDS011;45961;53.574;55.878;2022-08-25T03:18:33;23.03;;;10.10;;
60088;SDS011;45961;53.574;55.878;2022-08-25T03:19:34;19.00;;;10.73;;
60088;SDS011;45961;53.574;55.878;2022-08-25T03:20:35;16.83;;;10.63;;
60088;SDS011;45961;53.574;55.878;2022-08-25T03:21:37;15.10;;;11.57;;
60088;SDS011;45961;53.574;55.878;2022-08-25T03:22:38;22.95;;;11.77;;
60088;SDS011;45961;53.574;55.878;2022-08-25T03:23:40;14.75;;;11.13;;
60088;SDS011;45961;53.574;55.878;2022-08-25T03:24:41;15.20;;;12.27;;
60088;SDS011;45961;53.574;55.878;2022-08-25T03:25:42;15.02;;;12.70;;
60088;SDS011;45961;53.574;55.878;2022-08-25T03:27:02;19.15;;;12.30;;
60088;SDS011;45961;53.574;55.878;2022-08-25T03:28:05;25.42;;;12.65;;
60088;SDS011;45961;53.574;55.878;2022-08-25T03:29:07;24.13;;;12.60;;
60088;SDS011;45961;53.574;55.878;2022-08-25T03:30:10;18.80;;;11.90;;
60088;SDS011;45961;53.574;55.878;2022-08-25T03:31:12;16.95;;;12.13;;
60088;SDS011;45961;53.574;55.878;2022-08-25T03:32:13;17.70;;;13.48;;
60088;SDS011;45961;53.574;55.878;2022-08-25T03:33:15;18.77;;;12.35;;
60088;SDS011;45961;53.574;55.878;2022-08-25T03:34:16;16.30;;;13.13;;
60088;SDS011;45961;53.574;55.878;2022-08-25T03:35:18;25.92;;;13.60;;
60088;SDS011;45961;53.574;55.878;2022-08-25T03:36:19;23.55;;;13.25;;
60088;SDS011;45961;53.574;55.878;2022-08-25T03:37:20;18.15;;;12.88;;
60088;SDS011;45961;53.574;55.878;2022-08-25T03:38:21;21.88;;;13.45;;
60088;SDS011;45961;53.574;55.878;2022-08-25T03:39:24;23.73;;;13.95;;
60088;SDS011;45961;53.574;55.878;2022-08-25T03:40:27;23.67;;;14.25;;
60088;SDS011;45961;53.574;55.878;2022-08-25T03:41:29;28.55;;;14.52;;
60088;SDS011;45961;53.574;55.878;2022-08-25T03:42:32;19.67;;;13.80;;
60088;SDS011;45961;53.574;55.878;2022-08-25T03:43:33;21.27;;;14.25;;
60088;SDS011;45961;53.574;55.878;2022-08-25T03:44:34;21.63;;;15.10;;
60088;SDS011;45961;53.574;55.878;2022-08-25T03:45:38;20.33;;;14.70;;
60088;SDS011;45961;53.574;55.878;2022-08-25T03:46:40;22.70;;;15.07;;
60088;SDS011;45961;53.574;55.878;2022-08-25T03:47:46;22.17;;;14.68;;
60088;SDS011;45961;53.574;55.878;2022-08-25T03:48:48;57.83;;;18.58;;
60088;SDS011;45961;53.574;55.878;2022-08-25T03:49:51;24.65;;;15.40;;
60088;SDS011;45961;53.574;55.878;2022-08-25T03:51:54;23.88;;;15.05;;
60088;SDS011;45961;53.574;55.878;2022-08-25T03:52:55;20.95;;;15.35;;
60088;SDS011;45961;53.574;55.878;2022-08-25T03:53:57;23.13;;;15.95;;
60088;SDS011;45961;53.574;55.878;2022-08-25T03:54:59;21.55;;;16.40;;
60088;SDS011;45961;53.574;55.878;2022-08-25T03:56:01;21.58;;;15.75;;
60088;SDS011;45961;53.574;55.878;2022-08-25T03:57:02;25.90;;;16.88;;
60088;SDS011;45961;53.574;55.878;2022-08-25T03:58:03;27.10;;;16.88;;
60088;SDS011;45961;53.574;55.878;2022-08-25T03:59:04;22.67;;;16.25;;
60088;SDS011;45961;53.574;55.878;2022-08-25T04:00:08;25.58;;;16.25;;
60088;SDS011;45961;53.574;55.878;2022-08-25T04:01:14;25.92;;;17.15;;
60088;SDS011;45961;53.574;55.878;2022-08-25T04:02:16;23.95;;;15.23;;
60088;SDS011;45961;53.574;55.878;2022-08-25T04:03:17;29.50;;;15.98;;
60088;SDS011;45961;53.574;55.878;2022-08-25T04:04:18;25.48;;;16.42;;
60088;SDS011;45961;53.574;55.878;2022-08-25T04:05:20;34.08;;;15.82;;
60088;SDS011;45961;53.574;55.878;2022-08-25T04:06:21;30.00;;;15.63;;
60088;SDS011;45961;53.574;55.878;2022-08-25T04:07:22;25.70;;;15.30;;
60088;SDS011;45961;53.574;55.878;2022-08-25T04:08:23;22.90;;;15.23;;
60088;SDS011;45961;53.574;55.878;2022-08-25T04:09:24;22.98;;;14.73;;
60088;SDS011;45961;53.574;55.878;2022-08-25T04:10:26;22.08;;;15.30;;
60088;SDS011;45961;53.574;55.878;2022-08-25T04:11:27;23.50;;;15.95;;
60088;SDS011;45961;53.574;55.878;2022-08-25T04:13:29;22.47;;;15.27;;
60088;SDS011;45961;53.574;55.878;2022-08-25T04:14:30;24.88;;;16.08;;
60088;SDS011;45961;53.574;55.878;2022-08-25T04:15:31;27.13;;;17.10;;
60088;SDS011;45961;53.574;55.878;2022-08-25T04:16:32;31.20;;;16.80;;
60088;SDS011;45961;53.574;55.878;2022-08-25T04:17:37;21.60;;;15.27;;
60088;SDS011;45961;53.574;55.878;2022-08-25T04:18:39;34.20;;;17.30;;
60088;SDS011;45961;53.574;55.878;2022-08-25T04:19:41;23.73;;;16.42;;
60088;SDS011;45961;53.574;55.878;2022-08-25T04:20:42;27.83;;;16.80;;
60088;SDS011;45961;53.574;55.878;2022-08-25T04:21:43;28.83;;;16.80;;
60088;SDS011;45961;53.574;55.878;2022-08-25T04:22:44;28.15;;;17.50;;
60088;SDS011;45961;53.574;55.878;2022-08-25T04:23:46;25.67;;;15.88;;
60088;SDS011;45961;53.574;55.878;2022-08-25T04:24:48;26.67;;;15.13;;
60088;SDS011;45961;53.574;55.878;2022-08-25T04:25:49;25.80;;;16.30;;
60088;SDS011;45961;53.574;55.878;2022-08-25T04:26:50;25.95;;;16.58;;
60088;SDS011;45961;53.574;55.878;2022-08-25T04:27:52;25.75;;;17.02;;
60088;SDS011;45961;53.574;55.878;2022-08-25T04:28:58;32.45;;;16.58;;
60088;SDS011;45961;53.574;55.878;2022-08-25T04:30:00;24.90;;;16.48;;
60088;SDS011;45961;53.574;55.878;2022-08-25T04:31:04;27.83;;;16.05;;
60088;SDS011;45961;53.574;55.878;2022-08-25T04:32:06;24.92;;;15.05;;
60088;SDS011;45961;53.574;55.878;2022-08-25T04:33:07;25.20;;;15.63;;
60088;SDS011;45961;53.574;55.878;2022-08-25T04:34:08;26.27;;;17.67;;
60088;SDS011;45961;53.574;55.878;2022-08-25T04:35:09;32.35;;;16.83;;
60088;SDS011;45961;53.574;55.878;2022-08-25T04:36:10;32.92;;;16.90;;
60088;SDS011;45961;53.574;55.878;2022-08-25T04:37:11;43.25;;;16.10;;
60088;SDS011;45961;53.574;55.878;2022-08-25T04:38:12;37.00;;;16.23;;
60088;SDS011;45961;53.574;55.878;2022-08-25T04:39:13;33.78;;;15.93;;
60088;SDS011;45961;53.574;55.878;2022-08-25T04:40:14;39.15;;;15.90;;
60088;SDS011;45961;53.574;55.878;2022-08-25T04:41:16;27.67;;;14.93;;
60088;SDS011;45961;53.574;55.878;2022-08-25T04:42:19;39.95;;;15.15;;
60088;SDS011;45961;53.574;55.878;2022-08-25T04:43:21;28.58;;;15.20;;
60088;SDS011;45961;53.574;55.878;2022-08-25T04:44:22;36.45;;;14.82;;
60088;SDS011;45961;53.574;55.878;2022-08-25T04:45:23;46.08;;;16.13;;
60088;SDS011;45961;53.574;55.878;2022-08-25T04:46:27;28.95;;;14.52;;
60088;SDS011;45961;53.574;55.878;2022-08-25T04:47:30;37.85;;;15.63;;
60088;SDS011;45961;53.574;55.878;2022-08-25T04:48:31;42.80;;;15.93;;
60088;SDS011;45961;53.574;55.878;2022-08-25T04:49:32;30.67;;;15.52;;
60088;SDS011;45961;53.574;55.878;2022-08-25T04:50:36;25.30;;;14.20;;
60088;SDS011;45961;53.574;55.878;2022-08-25T04:51:39;32.38;;;14.35;;
60088;SDS011;45961;53.574;55.878;2022-08-25T04:52:40;28.15;;;14.77;;
60088;SDS011;45961;53.574;55.878;2022-08-25T04:53:42;30.45;;;13.98;;
60088;SDS011;45961;53.574;55.878;2022-08-25T04:54:43;30.15;;;14.15;;
60088;SDS011;45961;53.574;55.878;2022-08-25T04:55:45;43.50;;;14.93;;
60088;SDS011;45961;53.574;55.878;2022-08-25T04:56:48;49.40;;;14.57;;
60088;SDS011;45961;53.574;55.878;2022-08-25T04:57:50;40.53;;;15.95;;
60088;SDS011;45961;53.574;55.878;2022-08-25T04:58:54;42.75;;;15.65;;
60088;SDS011;45961;53.574;55.878;2022-08-25T04:59:55;43.75;;;15.48;;
60088;SDS011;45961;53.574;55.878;2022-08-25T05:01:00;28.63;;;14.73;;
60088;SDS011;45961;53.574;55.878;2022-08-25T05:02:02;38.05;;;14.20;;
60088;SDS011;45961;53.574;55.878;2022-08-25T05:03:05;50.45;;;16.55;;
60088;SDS011;45961;53.574;55.878;2022-08-25T05:04:07;37.05;;;15.65;;
60088;SDS011;45961;53.574;55.878;2022-08-25T05:05:10;37.88;;;13.98;;
60088;SDS011;45961;53.574;55.878;2022-08-25T05:06:11;35.03;;;14.02;;
60088;SDS011;45961;53.574;55.878;2022-08-25T05:07:12;47.50;;;14.93;;
60088;SDS011;45961;53.574;55.878;2022-08-25T05:08:13;37.60;;;14.48;;
60088;SDS011;45961;53.574;55.878;2022-08-25T05:09:14;36.92;;;14.43;;
60088;SDS011;45961;53.574;55.878;2022-08-25T05:10:15;62.47;;;16.02;;
60088;SDS011;45961;53.574;55.878;2022-08-25T05:11:17;91.15;;;18.17;;
60088;SDS011;45961;53.574;55.878;2022-08-25T05:12:19;45.45;;;14.63;;
60088;SDS011;45961;53.574;55.878;2022-08-25T05:13:20;41.40;;;15.32;;
60088;SDS011;45961;53.574;55.878;2022-08-25T05:15:22;33.97;;;15.73;;
60088;SDS011;45961;53.574;55.878;2022-08-25T05:16:43;45.83;;;15.35;;
60088;SDS011;45961;53.574;55.878;2022-08-25T05:17:44;43.55;;;15.43;;
60088;SDS011;45961;53.574;55.878;2022-08-25T05:18:48;36.20;;;14.40;;
60088;SDS011;45961;53.574;55.878;2022-08-25T05:19:49;37.72;;;14.93;;
60088;SDS011;45961;53.574;55.878;2022-08-25T05:20:51;48.72;;;16.58;;
60088;SDS011;45961;53.574;55.878;2022-08-25T05:21:53;41.45;;;14.65;;
60088;SDS011;45961;53.574;55.878;2022-08-25T05:22:54;34.42;;;14.63;;
60088;SDS011;45961;53.574;55.878;2022-08-25T05:24:57;43.05;;;14.45;;
60088;SDS011;45961;53.574;55.878;2022-08-25T05:26:09;46.25;;;15.40;;
60088;SDS011;45961;53.574;55.878;2022-08-25T05:27:12;38.65;;;14.50;;
60088;SDS011;45961;53.574;55.878;2022-08-25T05:28:13;39.60;;;15.27;;
60088;SDS011;45961;53.574;55.878;2022-08-25T05:29:14;49.20;;;15.75;;
60088;SDS011;45961;53.574;55.878;2022-08-25T05:30:15;44.88;;;16.30;;
60088;SDS011;45961;53.574;55.878;2022-08-25T05:31:17;44.10;;;14.77;;
60088;SDS011;45961;53.574;55.878;2022-08-25T05:32:19;34.47;;;15.07;;
60088;SDS011;45961;53.574;55.878;2022-08-25T05:33:20;45.15;;;15.57;;
60088;SDS011;45961;53.574;55.878;2022-08-25T05:34:21;54.50;;;16.63;;
60088;SDS011;45961;53.574;55.878;2022-08-25T05:35:22;48.10;;;15.95;;
60088;SDS011;45961;53.574;55.878;2022-08-25T05:36:24;43.72;;;14.90;;
60088;SDS011;45961;53.574;55.878;2022-08-25T05:37:26;40.35;;;15.45;;
60088;SDS011;45961;53.574;55.878;2022-08-25T05:38:27;37.17;;;14.88;;
60088;SDS011;45961;53.574;55.878;2022-08-25T05:39:28;42.22;;;15.13;;
60088;SDS011;45961;53.574;55.878;2022-08-25T05:40:31;35.58;;;15.40;;
60088;SDS011;45961;53.574;55.878;2022-08-25T05:41:33;40.88;;;15.95;;
60088;SDS011;45961;53.574;55.878;2022-08-25T05:42:34;35.03;;;14.75;;
60088;SDS011;45961;53.574;55.878;2022-08-25T05:43:36;41.90;;;14.20;;
60088;SDS011;45961;53.574;55.878;2022-08-25T05:44:38;40.67;;;14.48;;
60088;SDS011;45961;53.574;55.878;2022-08-25T05:45:39;44.58;;;15.88;;
60088;SDS011;45961;53.574;55.878;2022-08-25T05:46:41;46.08;;;15.82;;
60088;SDS011;45961;53.574;55.878;2022-08-25T05:47:42;42.55;;;16.48;;
60088;SDS011;45961;53.574;55.878;2022-08-25T05:48:43;41.58;;;15.57;;
60088;SDS011;45961;53.574;55.878;2022-08-25T05:49:45;42.15;;;14.73;;
60088;SDS011;45961;53.574;55.878;2022-08-25T05:50:56;40.75;;;14.68;;
60088;SDS011;45961;53.574;55.878;2022-08-25T05:51:59;44.22;;;14.85;;
60088;SDS011;45961;53.574;55.878;2022-08-25T05:53:00;32.08;;;14.50;;
60088;SDS011;45961;53.574;55.878;2022-08-25T05:54:02;33.20;;;13.52;;
60088;SDS011;45961;53.574;55.878;2022-08-25T05:56:04;29.90;;;14.73;;
60088;SDS011;45961;53.574;55.878;2022-08-25T05:58:06;32.08;;;13.95;;
60088;SDS011;45961;53.574;55.878;2022-08-25T05:59:07;34.05;;;14.80;;
60088;SDS011;45961;53.574;55.878;2022-08-25T06:01:20;42.30;;;15.00;;
60088;SDS011;45961;53.574;55.878;2022-08-25T06:02:42;28.10;;;12.60;;
60088;SDS011;45961;53.574;55.878;2022-08-25T06:03:45;36.20;;;15.80;;
60088;SDS011;45961;53.574;55.878;2022-08-25T06:04:47;41.80;;;17.45;;
60088;SDS011;45961;53.574;55.878;2022-08-25T06:05:48;45.67;;;16.35;;
60088;SDS011;45961;53.574;55.878;2022-08-25T06:06:49;36.00;;;13.85;;
60088;SDS011;45961;53.574;55.878;2022-08-25T06:07:53;42.53;;;15.48;;
60088;SDS011;45961;53.574;55.878;2022-08-25T06:08:55;43.22;;;15.18;;
60088;SDS011;45961;53.574;55.878;2022-08-25T06:09:56;27.00;;;11.82;;
60088;SDS011;45961;53.574;55.878;2022-08-25T06:10:57;20.95;;;11.75;;
60088;SDS011;45961;53.574;55.878;2022-08-25T06:11:58;32.40;;;12.27;;
60088;SDS011;45961;53.574;55.878;2022-08-25T06:12:59;39.50;;;13.32;;
60088;SDS011;45961;53.574;55.878;2022-08-25T06:14:00;33.30;;;13.65;;
60088;SDS011;45961;53.574;55.878;2022-08-25T06:15:01;29.92;;;12.48;;
60088;SDS011;45961;53.574;55.878;2022-08-25T06:16:03;33.92;;;12.93;;
60088;SDS011;45961;53.574;55.878;2022-08-25T06:17:05;29.50;;;12.57;;
60088;SDS011;45961;53.574;55.878;2022-08-25T06:18:06;33.20;;;14.00;;
60088;SDS011;45961;53.574;55.878;2022-08-25T06:19:07;36.17;;;13.15;;
60088;SDS011;45961;53.574;55.878;2022-08-25T06:20:11;33.58;;;14.00;;
60088;SDS011;45961;53.574;55.878;2022-08-25T06:21:14;48.50;;;14.52;;
60088;SDS011;45961;53.574;55.878;2022-08-25T06:22:16;50.20;;;15.60;;
60088;SDS011;45961;53.574;55.878;2022-08-25T06:23:17;38.05;;;14.20;;
60088;SDS011;45961;53.574;55.878;2022-08-25T06:25:21;44.90;;;13.87;;
60088;SDS011;45961;53.574;55.878;2022-08-25T06:26:23;38.03;;;14.35;;
60088;SDS011;45961;53.574;55.878;2022-08-25T06:27:24;35.83;;;14.63;;
60088;SDS011;45961;53.574;55.878;2022-08-25T06:28:25;46.33;;;14.65;;
60088;SDS011;45961;53.574;55.878;2022-08-25T06:29:26;50.75;;;15.45;;
60088;SDS011;45961;53.574;55.878;2022-08-25T06:30:27;49.97;;;14.73;;
60088;SDS011;45961;53.574;55.878;2022-08-25T06:32:30;41.63;;;14.57;;
60088;SDS011;45961;53.574;55.878;2022-08-25T06:33:32;33.33;;;11.95;;
60088;SDS011;45961;53.574;55.878;2022-08-25T06:34:33;35.15;;;13.05;;
60088;SDS011;45961;53.574;55.878;2022-08-25T06:35:39;52.58;;;13.55;;
60088;SDS011;45961;53.574;55.878;2022-08-25T06:36:41;35.85;;;13.68;;
60088;SDS011;45961;53.574;55.878;2022-08-25T06:37:42;42.63;;;12.70;;
60088;SDS011;45961;53.574;55.878;2022-08-25T06:38:44;49.65;;;14.65;;
60088;SDS011;45961;53.574;55.878;2022-08-25T06:39:45;47.22;;;14.65;;
60088;SDS011;45961;53.574;55.878;2022-08-25T06:40:47;36.20;;;13.15;;
60088;SDS011;45961;53.574;55.878;2022-08-25T06:41:54;41.72;;;15.48;;
60088;SDS011;45961;53.574;55.878;2022-08-25T06:42:59;44.03;;;13.10;;
60088;SDS011;45961;53.574;55.878;2022-08-25T06:44:00;57.35;;;14.18;;
60088;SDS011;45961;53.574;55.878;2022-08-25T06:45:01;42.92;;;14.13;;
60088;SDS011;45961;53.574;55.878;2022-08-25T06:47:13;54.78;;;14.38;;
60088;SDS011;45961;53.574;55.878;2022-08-25T06:48:15;33.35;;;13.30;;
60088;SDS011;45961;53.574;55.878;2022-08-25T06:49:16;42.47;;;14.23;;
60088;SDS011;45961;53.574;55.878;2022-08-25T06:50:17;34.95;;;14.20;;
60088;SDS011;45961;53.574;55.878;2022-08-25T06:51:18;34.42;;;12.77;;
60088;SDS011;45961;53.574;55.878;2022-08-25T06:52:20;42.30;;;13.10;;
60088;SDS011;45961;53.574;55.878;2022-08-25T06:54:22;38.70;;;12.27;;
60088;SDS011;45961;53.574;55.878;2022-08-25T06:55:24;38.78;;;11.93;;
60088;SDS011;45961;53.574;55.878;2022-08-25T06:56:25;38.20;;;12.30;;
60088;SDS011;45961;53.574;55.878;2022-08-25T06:57:26;34.55;;;12.02;;
60088;SDS011;45961;53.574;55.878;2022-08-25T06:59:28;36.17;;;12.18;;
60088;SDS011;45961;53.574;55.878;2022-08-25T07:01:30;32.60;;;12.10;;
60088;SDS011;45961;53.574;55.878;2022-08-25T07:02:31;36.20;;;11.68;;
60088;SDS011;45961;53.574;55.878;2022-08-25T07:04:33;33.83;;;12.77;;
60088;SDS011;45961;53.574;55.878;2022-08-25T07:05:34;25.58;;;11.57;;
60088;SDS011;45961;53.574;55.878;2022-08-25T07:06:35;24.55;;;10.10;;
60088;SDS011;45961;53.574;55.878;2022-08-25T07:07:37;26.30;;;11.02;;
60088;SDS011;45961;53.574;55.878;2022-08-25T07:09:39;36.70;;;11.50;;
60088;SDS011;45961;53.574;55.878;2022-08-25T07:11:41;21.20;;;10.57;;
60088;SDS011;45961;53.574;55.878;2022-08-25T07:12:42;24.98;;;9.63;;
60088;SDS011;45961;53.574;55.878;2022-08-25T07:13:44;27.02;;;10.30;;
60088;SDS011;45961;53.574;55.878;2022-08-25T07:14:45;20.58;;;9.27;;
60088;SDS011;45961;53.574;55.878;2022-08-25T07:15:46;22.48;;;9.77;;
60088;SDS011;45961;53.574;55.878;2022-08-25T07:16:47;24.95;;;9.48;;
60088;SDS011;45961;53.574;55.878;2022-08-25T07:18:52;14.50;;;7.35;;
60088;SDS011;45961;53.574;55.878;2022-08-25T07:19:55;16.30;;;8.10;;
60088;SDS011;45961;53.574;55.878;2022-08-25T07:20:56;11.65;;;8.02;;
60088;SDS011;45961;53.574;55.878;2022-08-25T07:21:58;14.68;;;7.40;;
60088;SDS011;45961;53.574;55.878;2022-08-25T07:24:00;8.57;;;6.33;;
60088;SDS011;45961;53.574;55.878;2022-08-25T07:25:03;11.10;;;6.60;;
60088;SDS011;45961;53.574;55.878;2022-08-25T07:27:13;12.48;;;6.50;;
60088;SDS011;45961;53.574;55.878;2022-08-25T07:30:19;14.05;;;7.60;;
60088;SDS011;45961;53.574;55.878;2022-08-25T07:31:20;9.15;;;6.60;;
60088;SDS011;45961;53.574;55.878;2022-08-25T07:32:22;8.43;;;7.53;;
60088;SDS011;45961;53.574;55.878;2022-08-25T07:33:22;9.88;;;7.30;;
60088;SDS011;45961;53.574;55.878;2022-08-25T07:34:23;10.10;;;7.25;;
60088;SDS011;45961;53.574;55.878;2022-08-25T07:35:43;7.50;;;6.57;;
60088;SDS011;45961;53.574;55.878;2022-08-25T07:36:44;9.48;;;6.85;;
60088;SDS011;45961;53.574;55.878;2022-08-25T07:37:49;8.65;;;7.03;;
60088;SDS011;45961;53.574;55.878;2022-08-25T07:38:52;9.20;;;7.28;;
60088;SDS011;45961;53.574;55.878;2022-08-25T07:39:53;9.00;;;6.90;;
60088;SDS011;45961;53.574;55.878;2022-08-25T07:41:03;9.32;;;7.68;;
60088;SDS011;45961;53.574;55.878;2022-08-25T07:42:04;7.38;;;6.70;;
60088;SDS011;45961;53.574;55.878;2022-08-25T07:44:10;8.40;;;6.65;;
60088;SDS011;45961;53.574;55.878;2022-08-25T07:45:11;7.22;;;6.45;;
60088;SDS011;45961;53.574;55.878;2022-08-25T07:46:13;7.78;;;6.97;;
60088;SDS011;45961;53.574;55.878;2022-08-25T07:47:14;8.10;;;7.10;;
60088;SDS011;45961;53.574;55.878;2022-08-25T07:48:16;9.20;;;7.10;;
60088;SDS011;45961;53.574;55.878;2022-08-25T07:49:20;8.20;;;7.40;;
60088;SDS011;45961;53.574;55.878;2022-08-25T07:50:22;9.25;;;6.80;;
60088;SDS011;45961;53.574;55.878;2022-08-25T07:51:23;8.90;;;6.70;;
60088;SDS011;45961;53.574;55.878;2022-08-25T07:53:25;7.93;;;7.17;;
60088;SDS011;45961;53.574;55.878;2022-08-25T07:54:26;7.55;;;6.70;;
60088;SDS011;45961;53.574;55.878;2022-08-25T07:55:27;7.93;;;7.15;;
60088;SDS011;45961;53.574;55.878;2022-08-25T07:56:29;7.95;;;7.25;;
60088;SDS011;45961;53.574;55.878;2022-08-25T07:58:32;8.77;;;6.43;;
60088;SDS011;45961;53.574;55.878;2022-08-25T07:59:33;10.95;;;7.10;;
60088;SDS011;45961;53.574;55.878;2022-08-25T08:01:36;8.80;;;6.75;;
60088;SDS011;45961;53.574;55.878;2022-08-25T08:02:38;7.32;;;6.57;;
60088;SDS011;45961;53.574;55.878;2022-08-25T08:03:40;7.95;;;7.07;;
60088;SDS011;45961;53.574;55.878;2022-08-25T08:04:41;7.03;;;6.43;;
60088;SDS011;45961;53.574;55.878;2022-08-25T08:05:45;9.05;;;6.70;;
60088;SDS011;45961;53.574;55.878;2022-08-25T08:06:47;8.35;;;6.53;;
60088;SDS011;45961;53.574;55.878;2022-08-25T08:07:48;7.00;;;6.43;;
60088;SDS011;45961;53.574;55.878;2022-08-25T08:08:49;8.68;;;6.80;;
60088;SDS011;45961;53.574;55.878;2022-08-25T08:09:52;7.63;;;6.78;;
60088;SDS011;45961;53.574;55.878;2022-08-25T08:10:53;12.35;;;7.00;;
60088;SDS011;45961;53.574;55.878;2022-08-25T08:11:54;8.27;;;7.13;;
60088;SDS011;45961;53.574;55.878;2022-08-25T08:12:55;7.82;;;6.38;;
60088;SDS011;45961;53.574;55.878;2022-08-25T08:13:56;10.27;;;6.78;;
60088;SDS011;45961;53.574;55.878;2022-08-25T08:14:58;7.28;;;6.57;;
60088;SDS011;45961;53.574;55.878;2022-08-25T08:15:59;7.13;;;6.13;;
60088;SDS011;45961;53.574;55.878;2022-08-25T08:18:06;9.02;;;6.07;;
60088;SDS011;45961;53.574;55.878;2022-08-25T08:19:09;8.70;;;7.03;;
60088;SDS011;45961;53.574;55.878;2022-08-25T08:20:10;7.93;;;6.57;;
60088;SDS011;45961;53.574;55.878;2022-08-25T08:21:19;11.02;;;7.00;;
60088;SDS011;45961;53.574;55.878;2022-08-25T08:22:30;12.70;;;6.32;;
60088;SDS011;45961;53.574;55.878;2022-08-25T08:23:32;7.72;;;6.35;;
60088;SDS011;45961;53.574;55.878;2022-08-25T08:24:33;11.82;;;6.85;;
60088;SDS011;45961;53.574;55.878;2022-08-25T08:25:38;7.50;;;6.80;;
60088;SDS011;45961;53.574;55.878;2022-08-25T08:26:39;17.50;;;7.47;;
60088;SDS011;45961;53.574;55.878;2022-08-25T08:27:40;8.77;;;7.05;;
60088;SDS011;45961;53.574;55.878;2022-08-25T08:28:42;7.28;;;6.55;;
60088;SDS011;45961;53.574;55.878;2022-08-25T08:29:44;14.43;;;7.20;;
60088;SDS011;45961;53.574;55.878;2022-08-25T08:31:46;10.83;;;6.60;;
60088;SDS011;45961;53.574;55.878;2022-08-25T08:32:47;9.88;;;6.22;;
60088;SDS011;45961;53.574;55.878;2022-08-25T08:33:51;7.38;;;6.35;;
60088;SDS011;45961;53.574;55.878;2022-08-25T08:34:53;10.50;;;6.75;;
60088;SDS011;45961;53.574;55.878;2022-08-25T08:36:04;20.15;;;7.45;;
60088;SDS011;45961;53.574;55.878;2022-08-25T08:37:11;7.82;;;6.72;;
60088;SDS011;45961;53.574;55.878;2022-08-25T08:38:12;11.88;;;7.57;;
60088;SDS011;45961;53.574;55.878;2022-08-25T08:39:13;11.77;;;6.55;;
60088;SDS011;45961;53.574;55.878;2022-08-25T08:41:29;9.43;;;6.63;;
60088;SDS011;45961;53.574;55.878;2022-08-25T08:43:04;7.32;;;6.22;;
60088;SDS011;45961;53.574;55.878;2022-08-25T08:48:53;10.27;;;6.95;;
60088;SDS011;45961;53.574;55.878;2022-08-25T08:50:04;8.95;;;6.75;;
60088;SDS011;45961;53.574;55.878;2022-08-25T08:51:30;8.20;;;6.70;;
60088;SDS011;45961;53.574;55.878;2022-08-25T08:52:39;9.80;;;6.05;;
60088;SDS011;45961;53.574;55.878;2022-08-25T08:55:01;7.95;;;6.85;;
60088;SDS011;45961;53.574;55.878;2022-08-25T08:56:08;9.25;;;6.63;;
60088;SDS011;45961;53.574;55.878;2022-08-25T08:57:15;7.72;;;6.00;;
60088;SDS011;45961;53.574;55.878;2022-08-25T08:58:21;7.25;;;6.55;;
60088;SDS011;45961;53.574;55.878;2022-08-25T08:59:41;8.13;;;6.25;;
60088;SDS011;45961;53.574;55.878;2022-08-25T09:00:51;9.57;;;6.32;;
60088;SDS011;45961;53.574;55.878;2022-08-25T09:01:56;10.65;;;7.63;;
60088;SDS011;45961;53.574;55.878;2022-08-25T09:03:06;7.82;;;6.75;;
60088;SDS011;45961;53.574;55.878;2022-08-25T09:05:17;11.65;;;7.40;;
60088;SDS011;45961;53.574;55.878;2022-08-25T09:06:27;11.00;;;6.88;;
60088;SDS011;45961;53.574;55.878;2022-08-25T09:07:40;7.90;;;6.28;;
60088;SDS011;45961;53.574;55.878;2022-08-25T09:08:48;7.68;;;6.32;;
60088;SDS011;45961;53.574;55.878;2022-08-25T09:09:49;12.85;;;6.65;;
60088;SDS011;45961;53.574;55.878;2022-08-25T09:11:07;7.30;;;6.38;;
60088;SDS011;45961;53.574;55.878;2022-08-25T09:12:35;6.75;;;6.15;;
60088;SDS011;45961;53.574;55.878;2022-08-25T09:13:54;9.98;;;6.38;;
60088;SDS011;45961;53.574;55.878;2022-08-25T09:17:11;13.60;;;7.00;;
60088;SDS011;45961;53.574;55.878;2022-08-25T09:25:59;7.53;;;5.93;;
60088;SDS011;45961;53.574;55.878;2022-08-25T09:28:48;10.57;;;6.53;;
60088;SDS011;45961;53.574;55.878;2022-08-25T09:31:29;9.35;;;6.47;;
60088;SDS011;45961;53.574;55.878;2022-08-25T09:32:44;7.15;;;6.18;;
60088;SDS011;45961;53.574;55.878;2022-08-25T09:33:47;22.90;;;6.72;;
60088;SDS011;45961;53.574;55.878;2022-08-25T09:34:51;15.70;;;6.35;;
60088;SDS011;45961;53.574;55.878;2022-08-25T09:35:55;9.10;;;6.68;;
60088;SDS011;45961;53.574;55.878;2022-08-25T09:36:57;12.00;;;7.07;;
60088;SDS011;45961;53.574;55.878;2022-08-25T09:37:59;10.52;;;6.95;;
60088;SDS011;45961;53.574;55.878;2022-08-25T09:39:02;23.50;;;7.15;;
60088;SDS011;45961;53.574;55.878;2022-08-25T09:40:04;8.85;;;6.18;;
60088;SDS011;45961;53.574;55.878;2022-08-25T09:41:05;8.98;;;5.85;;
60088;SDS011;45961;53.574;55.878;2022-08-25T09:42:07;6.90;;;5.75;;
60088;SDS011;45961;53.574;55.878;2022-08-25T09:44:25;8.10;;;5.95;;
60088;SDS011;45961;53.574;55.878;2022-08-25T09:45:31;12.18;;;6.20;;
60088;SDS011;45961;53.574;55.878;2022-08-25T09:46:58;9.00;;;6.15;;
60088;SDS011;45961;53.574;55.878;2022-08-25T09:48:26;14.85;;;6.78;;
60088;SDS011;45961;53.574;55.878;2022-08-25T09:49:44;7.45;;;5.97;;
60088;SDS011;45961;53.574;55.878;2022-08-25T09:50:49;8.80;;;6.63;;
60088;SDS011;45961;53.574;55.878;2022-08-25T09:51:52;7.60;;;6.35;;
60088;SDS011;45961;53.574;55.878;2022-08-25T09:52:53;7.47;;;5.28;;
60088;SDS011;45961;53.574;55.878;2022-08-25T09:56:30;6.63;;;5.88;;
60088;SDS011;45961;53.574;55.878;2022-08-25T09:57:34;6.25;;;5.65;;
60088;SDS011;45961;53.574;55.878;2022-08-25T09:58:45;6.25;;;5.65;;
60088;SDS011;45961;53.574;55.878;2022-08-25T10:02:24;9.43;;;5.75;;
60088;SDS011;45961;53.574;55.878;2022-08-25T10:03:28;11.43;;;6.78;;
60088;SDS011;45961;53.574;55.878;2022-08-25T10:04:34;9.90;;;5.70;;
60088;SDS011;45961;53.574;55.878;2022-08-25T10:05:40;7.95;;;5.70;;
60088;SDS011;45961;53.574;55.878;2022-08-25T10:06:59;6.93;;;5.93;;
60088;SDS011;45961;53.574;55.878;2022-08-25T10:08:08;9.80;;;7.00;;
60088;SDS011;45961;53.574;55.878;2022-08-25T10:09:21;11.70;;;6.33;;
60088;SDS011;45961;53.574;55.878;2022-08-25T10:10:43;11.07;;;5.80;;
60088;SDS011;45961;53.574;55.878;2022-08-25T10:11:45;10.98;;;6.38;;
60088;SDS011;45961;53.574;55.878;2022-08-25T10:12:47;7.45;;;5.80;;
60088;SDS011;45961;53.574;55.878;2022-08-25T10:14:52;10.57;;;5.75;;
60088;SDS011;45961;53.574;55.878;2022-08-25T10:18:32;12.73;;;5.80;;
60088;SDS011;45961;53.574;55.878;2022-08-25T10:19:33;8.80;;;5.70;;
60088;SDS011;45961;53.574;55.878;2022-08-25T10:21:36;10.65;;;6.28;;
60088;SDS011;45961;53.574;55.878;2022-08-25T10:22:39;13.60;;;6.78;;
60088;SDS011;45961;53.574;55.878;2022-08-25T10:23:50;17.08;;;6.28;;
60088;SDS011;45961;53.574;55.878;2022-08-25T10:24:55;9.73;;;6.07;;
60088;SDS011;45961;53.574;55.878;2022-08-25T10:28:26;9.35;;;6.38;;